createdAt,value
2018-09-05T13:39:51.919Z,30.70
2018-09-05T13:42:22.748Z,30.70
2018-09-05T13:44:53.676Z,30.40
2018-09-05T13:47:25.556Z,30.30
2018-09-05T13:49:56.420Z,30.40
2018-09-05T13:52:27.221Z,30.10
2018-09-05T13:54:58.848Z,29.80
2018-09-05T13:57:30.339Z,29.80
2018-09-05T14:00:03.882Z,30.10
2018-09-05T14:02:37.072Z,29.80
2018-09-05T14:05:07.903Z,29.60
2018-09-05T14:07:38.642Z,29.50
2018-09-05T14:10:16.158Z,29.50
2018-09-05T14:12:47.702Z,29.60
2018-09-05T14:15:18.679Z,29.50
2018-09-05T14:17:50.780Z,29.40
2018-09-05T14:20:21.741Z,29.40
2018-09-05T14:22:52.701Z,29.50
2018-09-05T14:25:29.775Z,29.40
2018-09-05T14:28:00.691Z,29.20
2018-09-05T14:30:32.288Z,29.20
2018-09-05T14:33:03.220Z,29.20
2018-09-05T14:35:34.009Z,29.10
2018-09-05T14:38:04.857Z,29.00
2018-09-05T14:40:37.510Z,28.90
2018-09-05T14:43:09.089Z,28.80
2018-09-05T14:45:39.855Z,28.70
2018-09-05T14:48:10.677Z,28.70
2018-09-05T14:50:41.521Z,28.50
2018-09-05T14:53:18.598Z,28.20
2018-09-05T14:55:49.539Z,28.20
2018-09-05T14:58:20.753Z,28.20
2018-09-05T15:00:52.229Z,28.20
2018-09-05T15:03:23.229Z,28.00
2018-09-05T15:05:54.094Z,28.00
2018-09-05T15:08:25.092Z,28.10
2018-09-05T15:10:56.261Z,28.00
2018-09-05T15:13:27.271Z,27.90
2018-09-05T15:16:00.044Z,28.00
2018-09-05T15:18:30.983Z,28.10
2018-09-05T15:21:01.840Z,28.10
2018-09-05T15:23:32.964Z,28.10
2018-09-05T15:26:04.334Z,28.00
2018-09-05T15:28:35.367Z,27.90
2018-09-05T15:31:06.830Z,27.80
2018-09-05T15:33:38.488Z,27.70
2018-09-05T15:36:10.315Z,27.70
2018-09-05T15:38:41.317Z,27.40
2018-09-05T15:41:13.529Z,27.20
2018-09-05T15:43:44.423Z,27.00
2018-09-05T16:06:28.248Z,26.40
2018-09-05T16:08:59.683Z,26.20
2018-09-05T16:11:31.486Z,26.10
2018-09-05T16:14:02.233Z,26.10
2018-09-05T16:16:32.982Z,26.00
2018-09-05T16:19:03.760Z,26.20
2018-09-05T16:21:34.841Z,26.00
2018-09-05T16:24:06.342Z,25.90
2018-09-05T16:26:37.782Z,25.80
2018-09-05T16:29:08.408Z,25.70
2018-09-05T16:31:39.212Z,25.60
2018-09-05T16:34:13.340Z,25.60
2018-09-05T16:36:44.448Z,25.70
2018-09-05T16:39:15.229Z,25.70
2018-09-05T16:42:04.358Z,25.70
2018-09-05T16:44:37.884Z,25.60
2018-09-05T16:47:09.035Z,25.50
2018-09-05T16:56:14.029Z,25.30
2018-09-05T16:58:47.195Z,25.10
2018-09-05T17:01:19.793Z,25.00
2018-09-05T19:25:13.120Z,21.80
2018-09-05T19:27:43.854Z,21.80
2018-09-05T19:30:14.788Z,21.70
2018-09-05T19:32:45.538Z,21.60
2018-09-05T19:35:17.951Z,21.60
2018-09-05T19:42:39.378Z,21.60
2018-09-05T19:45:11.476Z,21.50
2018-09-05T19:47:43.763Z,21.40
2018-09-05T19:50:14.702Z,21.40
2018-09-05T19:52:45.492Z,21.30
2018-09-05T19:55:16.507Z,21.20
2018-09-05T19:57:47.756Z,21.20
2018-09-05T20:00:19.237Z,21.10
2018-09-05T20:02:51.224Z,21.00
2018-09-05T20:05:24.591Z,20.90
2018-09-05T20:07:56.027Z,20.80
2018-09-05T20:10:27.255Z,20.80
2018-09-05T20:12:59.115Z,20.80
2018-09-05T20:15:29.985Z,20.70
2018-09-05T20:18:02.180Z,20.70
2018-09-05T20:20:34.138Z,20.60
2018-09-05T20:23:05.221Z,20.50
2018-09-05T20:25:36.716Z,20.40
2018-09-05T20:28:09.370Z,20.40
2018-09-05T21:12:35.318Z,20.00
2018-09-05T21:15:07.671Z,20.00
2018-09-05T22:25:16.936Z,19.90
2018-09-05T22:27:49.423Z,19.30
2018-09-05T22:30:33.186Z,19.20
2018-09-05T22:33:04.639Z,19.10
2018-09-05T22:35:50.123Z,19.10
2018-09-05T22:38:32.567Z,19.10
2018-09-05T22:41:04.182Z,19.00
2018-09-05T22:43:51.471Z,19.00
2018-09-05T22:46:39.899Z,19.00
2018-09-05T22:55:44.415Z,19.00
2018-09-05T23:00:36.993Z,19.00
2018-09-05T23:05:33.633Z,18.90
2018-09-05T23:09:17.755Z,18.80
2018-09-05T23:12:05.976Z,18.80
2018-09-05T23:30:21.012Z,18.80
2018-09-05T23:32:52.013Z,18.60
2018-09-05T23:35:36.383Z,18.60
2018-09-05T23:38:07.381Z,18.60
2018-09-05T23:40:38.420Z,18.60
2018-09-05T23:43:18.184Z,18.60
2018-09-05T23:45:49.177Z,18.50
2018-09-05T23:48:27.925Z,18.50
2018-09-05T23:51:00.511Z,18.40
2018-09-05T23:53:32.772Z,18.30
2018-09-05T23:58:45.808Z,18.10
